sensor_id;sensor_type;location;lat;lon;timestamp;pressure;altitude;pressure_sealevel;temperature;humidity
37904;BME280;23738;50.422;18.758;2023-08-06T00:01:07;97313.29;;;19.20;94.87
37904;BME280;23738;50.422;18.758;2023-08-06T00:03:36;97303.65;;;19.19;94.74
37904;BME280;23738;50.422;18.758;2023-08-06T00:06:07;97288.68;;;19.16;94.77
37904;BME280;23738;50.422;18.758;2023-08-06T00:08:36;97281.02;;;19.18;95.14
37904;BME280;23738;50.422;18.758;2023-08-06T00:11:05;97283.74;;;19.19;95.16
37904;BME280;23738;50.422;18.758;2023-08-06T00:13:35;97274.37;;;19.19;95.22
37904;BME280;23738;50.422;18.758;2023-08-06T00:16:13;97238.84;;;19.15;95.14
37904;BME280;23738;50.422;18.758;2023-08-06T00:18:43;97225.78;;;19.14;95.35
37904;BME280;23738;50.422;18.758;2023-08-06T00:21:12;97213.84;;;19.15;95.59
37904;BME280;23738;50.422;18.758;2023-08-06T00:23:42;97203.34;;;19.13;95.55
37904;BME280;23738;50.422;18.758;2023-08-06T00:26:11;97198.15;;;19.15;95.62
37904;BME280;23738;50.422;18.758;2023-08-06T00:28:40;97184.50;;;19.17;95.72
37904;BME280;23738;50.422;18.758;2023-08-06T00:31:10;97168.98;;;19.21;96.17
37904;BME280;23738;50.422;18.758;2023-08-06T00:33:39;97148.48;;;19.25;96.07
37904;BME280;23738;50.422;18.758;2023-08-06T00:36:08;97144.38;;;19.28;96.16
37904;BME280;23738;50.422;18.758;2023-08-06T00:38:38;97135.70;;;19.28;96.06
37904;BME280;23738;50.422;18.758;2023-08-06T00:41:07;97114.25;;;19.27;96.16
37904;BME280;23738;50.422;18.758;2023-08-06T00:43:36;97097.31;;;19.31;96.14
37904;BME280;23738;50.422;18.758;2023-08-06T00:46:06;97081.80;;;19.34;96.28
37904;BME280;23738;50.422;18.758;2023-08-06T00:48:35;97065.86;;;19.33;96.16
37904;BME280;23738;50.422;18.758;2023-08-06T00:51:04;97059.02;;;19.29;95.98
37904;BME280;23738;50.422;18.758;2023-08-06T00:53:34;97045.53;;;19.28;96.19
37904;BME280;23738;50.422;18.758;2023-08-06T00:56:04;97021.27;;;19.26;96.01
37904;BME280;23738;50.422;18.758;2023-08-06T00:58:33;96996.60;;;19.24;96.32
37904;BME280;23738;50.422;18.758;2023-08-06T01:01:03;96994.52;;;19.21;96.13
37904;BME280;23738;50.422;18.758;2023-08-06T01:03:33;97006.43;;;19.18;96.27
37904;BME280;23738;50.422;18.758;2023-08-06T01:06:02;97017.70;;;19.21;96.51
37904;BME280;23738;50.422;18.758;2023-08-06T01:08:40;97048.16;;;19.24;96.64
37904;BME280;23738;50.422;18.758;2023-08-06T01:11:25;97075.92;;;19.25;96.44
37904;BME280;23738;50.422;18.758;2023-08-06T01:14:02;97053.61;;;19.22;96.35
37904;BME280;23738;50.422;18.758;2023-08-06T01:16:35;96992.52;;;19.19;96.44
37904;BME280;23738;50.422;18.758;2023-08-06T01:19:04;96992.95;;;19.19;96.66
37904;BME280;23738;50.422;18.758;2023-08-06T01:21:34;96977.92;;;19.21;96.77
37904;BME280;23738;50.422;18.758;2023-08-06T01:24:04;96963.39;;;19.25;96.77
37904;BME280;23738;50.422;18.758;2023-08-06T01:26:35;96967.59;;;19.27;96.98
37904;BME280;23738;50.422;18.758;2023-08-06T01:29:10;96962.30;;;19.32;97.10
37904;BME280;23738;50.422;18.758;2023-08-06T01:31:43;96974.35;;;19.33;97.01
37904;BME280;23738;50.422;18.758;2023-08-06T01:34:24;96982.94;;;19.29;96.80
37904;BME280;23738;50.422;18.758;2023-08-06T01:36:54;96978.78;;;19.28;96.77
37904;BME280;23738;50.422;18.758;2023-08-06T01:39:24;96969.23;;;19.32;97.12
37904;BME280;23738;50.422;18.758;2023-08-06T01:41:53;96970.80;;;19.38;97.20
37904;BME280;23738;50.422;18.758;2023-08-06T01:44:23;96971.89;;;19.43;97.19
37904;BME280;23738;50.422;18.758;2023-08-06T01:46:52;96964.16;;;19.44;96.99
37904;BME280;23738;50.422;18.758;2023-08-06T01:49:22;96951.58;;;19.44;96.91
37904;BME280;23738;50.422;18.758;2023-08-06T01:51:51;96942.13;;;19.45;96.80
37904;BME280;23738;50.422;18.758;2023-08-06T01:54:20;96938.41;;;19.47;96.85
37904;BME280;23738;50.422;18.758;2023-08-06T01:56:50;96923.98;;;19.49;96.54
37904;BME280;23738;50.422;18.758;2023-08-06T01:59:20;96919.41;;;19.43;96.54
37904;BME280;23738;50.422;18.758;2023-08-06T02:01:49;96930.11;;;19.43;96.57
37904;BME280;23738;50.422;18.758;2023-08-06T02:04:18;96933.92;;;19.42;96.51
37904;BME280;23738;50.422;18.758;2023-08-06T02:06:47;96934.27;;;19.45;96.79
37904;BME280;23738;50.422;18.758;2023-08-06T02:09:17;96936.23;;;19.49;96.95
37904;BME280;23738;50.422;18.758;2023-08-06T02:11:46;96947.77;;;19.53;96.54
37904;BME280;23738;50.422;18.758;2023-08-06T02:14:15;96955.84;;;19.53;96.56
37904;BME280;23738;50.422;18.758;2023-08-06T02:16:44;96952.77;;;19.50;96.42
37904;BME280;23738;50.422;18.758;2023-08-06T02:19:14;96959.96;;;19.49;96.63
37904;BME280;23738;50.422;18.758;2023-08-06T02:21:43;96961.50;;;19.51;96.42
37904;BME280;23738;50.422;18.758;2023-08-06T02:24:13;96961.00;;;19.52;96.43
37904;BME280;23738;50.422;18.758;2023-08-06T02:26:42;96949.64;;;19.52;96.46
37904;BME280;23738;50.422;18.758;2023-08-06T02:29:11;96954.64;;;19.47;96.36
37904;BME280;23738;50.422;18.758;2023-08-06T02:31:40;96956.06;;;19.44;96.20
37904;BME280;23738;50.422;18.758;2023-08-06T02:34:10;96954.11;;;19.43;96.29
37904;BME280;23738;50.422;18.758;2023-08-06T02:36:39;96951.97;;;19.42;96.59
37904;BME280;23738;50.422;18.758;2023-08-06T02:39:08;96946.65;;;19.43;96.65
37904;BME280;23738;50.422;18.758;2023-08-06T02:41:38;96951.72;;;19.45;96.71
37904;BME280;23738;50.422;18.758;2023-08-06T02:44:07;96953.54;;;19.46;96.63
37904;BME280;23738;50.422;18.758;2023-08-06T02:46:36;96948.98;;;19.45;96.78
37904;BME280;23738;50.422;18.758;2023-08-06T02:49:05;96947.42;;;19.46;96.57
37904;BME280;23738;50.422;18.758;2023-08-06T02:51:35;96941.92;;;19.45;96.57
37904;BME280;23738;50.422;18.758;2023-08-06T02:54:04;96924.77;;;19.42;96.49
37904;BME280;23738;50.422;18.758;2023-08-06T02:56:33;96913.55;;;19.41;96.62
37904;BME280;23738;50.422;18.758;2023-08-06T02:59:03;96910.27;;;19.41;96.63
37904;BME280;23738;50.422;18.758;2023-08-06T03:01:32;96911.39;;;19.46;96.99
37904;BME280;23738;50.422;18.758;2023-08-06T03:04:01;96906.77;;;19.50;97.06
37904;BME280;23738;50.422;18.758;2023-08-06T03:06:31;96902.50;;;19.53;96.92
37904;BME280;23738;50.422;18.758;2023-08-06T03:09:00;96897.89;;;19.53;96.75
37904;BME280;23738;50.422;18.758;2023-08-06T03:11:30;96903.69;;;19.55;96.85
37904;BME280;23738;50.422;18.758;2023-08-06T03:13:59;96900.17;;;19.59;96.87
37904;BME280;23738;50.422;18.758;2023-08-06T03:16:28;96900.89;;;19.62;96.99
37904;BME280;23738;50.422;18.758;2023-08-06T03:18:58;96895.81;;;19.64;96.81
37904;BME280;23738;50.422;18.758;2023-08-06T03:21:27;96890.30;;;19.63;96.77
37904;BME280;23738;50.422;18.758;2023-08-06T03:23:56;96887.70;;;19.62;96.61
37904;BME280;23738;50.422;18.758;2023-08-06T03:26:26;96882.55;;;19.63;96.73
37904;BME280;23738;50.422;18.758;2023-08-06T03:28:55;96886.88;;;19.65;96.79
37904;BME280;23738;50.422;18.758;2023-08-06T03:31:24;96888.02;;;19.68;96.68
37904;BME280;23738;50.422;18.758;2023-08-06T03:33:53;96892.38;;;19.70;96.67
37904;BME280;23738;50.422;18.758;2023-08-06T03:36:23;96891.00;;;19.69;96.61
37904;BME280;23738;50.422;18.758;2023-08-06T03:38:52;96886.84;;;19.67;96.67
37904;BME280;23738;50.422;18.758;2023-08-06T03:41:21;96886.14;;;19.68;96.65
37904;BME280;23738;50.422;18.758;2023-08-06T03:43:51;96883.94;;;19.68;96.56
37904;BME280;23738;50.422;18.758;2023-08-06T03:46:20;96881.46;;;19.71;96.86
37904;BME280;23738;50.422;18.758;2023-08-06T03:48:49;96877.70;;;19.72;96.71
37904;BME280;23738;50.422;18.758;2023-08-06T03:51:18;96879.34;;;19.73;96.65
37904;BME280;23738;50.422;18.758;2023-08-06T03:53:48;96880.89;;;19.73;96.84
37904;BME280;23738;50.422;18.758;2023-08-06T03:56:17;96881.11;;;19.73;96.77
37904;BME280;23738;50.422;18.758;2023-08-06T03:58:46;96875.86;;;19.76;96.76
37904;BME280;23738;50.422;18.758;2023-08-06T04:01:16;96868.41;;;19.76;96.46
37904;BME280;23738;50.422;18.758;2023-08-06T04:03:45;96860.26;;;19.68;96.17
37904;BME280;23738;50.422;18.758;2023-08-06T04:06:14;96858.40;;;19.59;96.34
37904;BME280;23738;50.422;18.758;2023-08-06T04:08:43;96858.36;;;19.58;97.04
37904;BME280;23738;50.422;18.758;2023-08-06T04:11:13;96857.08;;;19.62;97.11
37904;BME280;23738;50.422;18.758;2023-08-06T04:13:44;96858.02;;;19.65;97.22
37904;BME280;23738;50.422;18.758;2023-08-06T04:16:14;96856.20;;;19.68;97.31
37904;BME280;23738;50.422;18.758;2023-08-06T04:18:43;96850.77;;;19.69;97.24
37904;BME280;23738;50.422;18.758;2023-08-06T04:21:14;96852.80;;;19.71;97.45
37904;BME280;23738;50.422;18.758;2023-08-06T04:23:43;96849.19;;;19.75;97.69
37904;BME280;23738;50.422;18.758;2023-08-06T04:26:12;96845.91;;;19.76;97.44
37904;BME280;23738;50.422;18.758;2023-08-06T04:28:42;96846.34;;;19.76;97.54
37904;BME280;23738;50.422;18.758;2023-08-06T04:31:11;96842.66;;;19.75;97.62
37904;BME280;23738;50.422;18.758;2023-08-06T04:33:40;96841.00;;;19.72;97.32
37904;BME280;23738;50.422;18.758;2023-08-06T04:36:10;96838.75;;;19.67;97.15
37904;BME280;23738;50.422;18.758;2023-08-06T04:38:39;96844.75;;;19.56;97.01
37904;BME280;23738;50.422;18.758;2023-08-06T04:41:12;96840.64;;;19.43;96.92
37904;BME280;23738;50.422;18.758;2023-08-06T04:43:42;96843.06;;;19.39;97.43
37904;BME280;23738;50.422;18.758;2023-08-06T04:46:11;96850.56;;;19.36;97.38
37904;BME280;23738;50.422;18.758;2023-08-06T04:48:40;96849.28;;;19.26;97.17
37904;BME280;23738;50.422;18.758;2023-08-06T04:51:10;96849.85;;;19.19;97.23
37904;BME280;23738;50.422;18.758;2023-08-06T04:53:39;96843.95;;;19.10;96.90
37904;BME280;23738;50.422;18.758;2023-08-06T04:56:08;96839.47;;;19.00;96.87
37904;BME280;23738;50.422;18.758;2023-08-06T04:58:37;96834.49;;;18.94;97.07
37904;BME280;23738;50.422;18.758;2023-08-06T05:01:06;96828.60;;;18.91;97.15
37904;BME280;23738;50.422;18.758;2023-08-06T05:03:36;96824.92;;;18.85;96.70
37904;BME280;23738;50.422;18.758;2023-08-06T05:06:05;96825.17;;;18.78;96.80
37904;BME280;23738;50.422;18.758;2023-08-06T05:08:35;96824.28;;;18.75;96.86
37904;BME280;23738;50.422;18.758;2023-08-06T05:11:04;96821.24;;;18.70;96.72
37904;BME280;23738;50.422;18.758;2023-08-06T05:13:33;96817.46;;;18.63;96.60
37904;BME280;23738;50.422;18.758;2023-08-06T05:16:03;96815.61;;;18.57;96.60
37904;BME280;23738;50.422;18.758;2023-08-06T05:18:32;96817.41;;;18.54;96.68
37904;BME280;23738;50.422;18.758;2023-08-06T05:21:02;96818.81;;;18.50;96.55
37904;BME280;23738;50.422;18.758;2023-08-06T05:23:32;96820.12;;;18.49;96.56
37904;BME280;23738;50.422;18.758;2023-08-06T05:26:01;96817.48;;;18.47;96.67
37904;BME280;23738;50.422;18.758;2023-08-06T05:28:30;96815.05;;;18.45;96.51
37904;BME280;23738;50.422;18.758;2023-08-06T05:30:59;96815.13;;;18.40;96.34
37904;BME280;23738;50.422;18.758;2023-08-06T05:33:32;96814.33;;;18.32;96.20
37904;BME280;23738;50.422;18.758;2023-08-06T05:36:01;96815.42;;;18.30;96.46
37904;BME280;23738;50.422;18.758;2023-08-06T05:38:31;96817.73;;;18.29;96.41
37904;BME280;23738;50.422;18.758;2023-08-06T05:41:00;96810.36;;;18.29;96.30
37904;BME280;23738;50.422;18.758;2023-08-06T05:43:29;96801.83;;;18.25;96.07
37904;BME280;23738;50.422;18.758;2023-08-06T05:45:58;96798.36;;;18.20;96.13
37904;BME280;23738;50.422;18.758;2023-08-06T05:48:28;96793.64;;;18.14;95.81
37904;BME280;23738;50.422;18.758;2023-08-06T05:50:57;96787.11;;;18.04;95.61
37904;BME280;23738;50.422;18.758;2023-08-06T05:53:27;96789.44;;;17.94;95.60
37904;BME280;23738;50.422;18.758;2023-08-06T05:55:56;96802.73;;;17.90;95.91
37904;BME280;23738;50.422;18.758;2023-08-06T05:58:26;96801.12;;;17.90;95.99
37904;BME280;23738;50.422;18.758;2023-08-06T06:00:57;96790.73;;;17.89;95.86
37904;BME280;23738;50.422;18.758;2023-08-06T06:03:26;96792.26;;;17.83;95.71
37904;BME280;23738;50.422;18.758;2023-08-06T06:05:55;96797.10;;;17.76;95.88
37904;BME280;23738;50.422;18.758;2023-08-06T06:08:25;96794.59;;;17.76;96.16
37904;BME280;23738;50.422;18.758;2023-08-06T06:10:54;96786.48;;;17.76;96.13
37904;BME280;23738;50.422;18.758;2023-08-06T06:13:24;96766.54;;;17.66;95.58
37904;BME280;23738;50.422;18.758;2023-08-06T06:15:56;96764.80;;;17.60;95.77
37904;BME280;23738;50.422;18.758;2023-08-06T06:18:25;96764.36;;;17.57;95.76
37904;BME280;23738;50.422;18.758;2023-08-06T06:20:55;96752.09;;;17.53;95.84
37904;BME280;23738;50.422;18.758;2023-08-06T06:23:24;96746.45;;;17.47;95.73
37904;BME280;23738;50.422;18.758;2023-08-06T06:25:53;96745.58;;;17.43;96.06
37904;BME280;23738;50.422;18.758;2023-08-06T06:28:23;96747.88;;;17.39;96.07
37904;BME280;23738;50.422;18.758;2023-08-06T06:30:53;96747.27;;;17.38;96.15
37904;BME280;23738;50.422;18.758;2023-08-06T06:33:22;96739.27;;;17.35;96.17
37904;BME280;23738;50.422;18.758;2023-08-06T06:35:51;96737.77;;;17.32;96.09
37904;BME280;23738;50.422;18.758;2023-08-06T06:38:21;96739.37;;;17.28;96.13
37904;BME280;23738;50.422;18.758;2023-08-06T06:40:56;96739.52;;;17.28;96.50
37904;BME280;23738;50.422;18.758;2023-08-06T06:43:24;96736.19;;;17.26;96.40
37904;BME280;23738;50.422;18.758;2023-08-06T06:45:57;96734.27;;;17.22;96.37
37904;BME280;23738;50.422;18.758;2023-08-06T06:48:28;96739.70;;;17.16;96.40
37904;BME280;23738;50.422;18.758;2023-08-06T06:50:58;96748.81;;;17.14;96.41
37904;BME280;23738;50.422;18.758;2023-08-06T06:53:27;96750.23;;;17.12;96.50
37904;BME280;23738;50.422;18.758;2023-08-06T06:56:00;96757.22;;;17.11;96.58
37904;BME280;23738;50.422;18.758;2023-08-06T06:58:30;96756.36;;;17.12;96.62
37904;BME280;23738;50.422;18.758;2023-08-06T07:01:00;96748.98;;;17.10;96.38
37904;BME280;23738;50.422;18.758;2023-08-06T07:03:29;96743.64;;;17.03;96.14
37904;BME280;23738;50.422;18.758;2023-08-06T07:06:00;96743.56;;;16.97;96.08
37904;BME280;23738;50.422;18.758;2023-08-06T07:08:29;96742.35;;;16.90;96.11
37904;BME280;23738;50.422;18.758;2023-08-06T07:11:05;96717.76;;;16.81;96.00
37904;BME280;23738;50.422;18.758;2023-08-06T07:13:35;96707.98;;;16.71;95.95
37904;BME280;23738;50.422;18.758;2023-08-06T07:16:05;96707.95;;;16.64;96.08
37904;BME280;23738;50.422;18.758;2023-08-06T07:18:34;96700.85;;;16.58;96.21
37904;BME280;23738;50.422;18.758;2023-08-06T07:21:03;96700.33;;;16.51;96.15
37904;BME280;23738;50.422;18.758;2023-08-06T07:23:33;96707.42;;;16.48;96.45
37904;BME280;23738;50.422;18.758;2023-08-06T07:26:02;96694.91;;;16.48;96.49
37904;BME280;23738;50.422;18.758;2023-08-06T07:28:31;96691.45;;;16.46;96.34
37904;BME280;23738;50.422;18.758;2023-08-06T07:31:02;96695.45;;;16.43;96.43
37904;BME280;23738;50.422;18.758;2023-08-06T07:33:31;96691.63;;;16.40;96.56
37904;BME280;23738;50.422;18.758;2023-08-06T07:36:06;96688.95;;;16.41;96.56
37904;BME280;23738;50.422;18.758;2023-08-06T07:38:36;96683.11;;;16.38;96.43
37904;BME280;23738;50.422;18.758;2023-08-06T07:41:06;96684.48;;;16.33;96.77
37904;BME280;23738;50.422;18.758;2023-08-06T07:43:36;96683.73;;;16.23;96.36
37904;BME280;23738;50.422;18.758;2023-08-06T07:46:05;96689.96;;;16.18;96.57
37904;BME280;23738;50.422;18.758;2023-08-06T07:48:35;96696.37;;;16.17;96.92
37904;BME280;23738;50.422;18.758;2023-08-06T07:51:04;96694.37;;;16.13;96.83
37904;BME280;23738;50.422;18.758;2023-08-06T07:53:33;96700.64;;;16.09;96.92
37904;BME280;23738;50.422;18.758;2023-08-06T07:56:03;96715.00;;;16.04;96.79
37904;BME280;23738;50.422;18.758;2023-08-06T07:58:32;96714.11;;;16.00;96.97
37904;BME280;23738;50.422;18.758;2023-08-06T08:01:02;96722.81;;;15.97;97.28
37904;BME280;23738;50.422;18.758;2023-08-06T08:03:31;96737.45;;;15.93;97.05
37904;BME280;23738;50.422;18.758;2023-08-06T08:06:00;96740.48;;;15.92;97.25
37904;BME280;23738;50.422;18.758;2023-08-06T08:08:30;96739.05;;;15.97;97.40
37904;BME280;23738;50.422;18.758;2023-08-06T08:10:59;96732.61;;;15.99;97.32
37904;BME280;23738;50.422;18.758;2023-08-06T08:13:29;96732.55;;;15.98;97.30
37904;BME280;23738;50.422;18.758;2023-08-06T08:15:59;96743.21;;;15.97;97.39
37904;BME280;23738;50.422;18.758;2023-08-06T08:18:29;96755.98;;;15.99;97.35
37904;BME280;23738;50.422;18.758;2023-08-06T08:20:59;96772.65;;;16.00;97.38
37904;BME280;23738;50.422;18.758;2023-08-06T08:23:29;96778.46;;;16.01;97.38
37904;BME280;23738;50.422;18.758;2023-08-06T08:25:59;96759.95;;;16.03;97.31
37904;BME280;23738;50.422;18.758;2023-08-06T08:28:30;96735.15;;;16.03;96.95
37904;BME280;23738;50.422;18.758;2023-08-06T08:30:59;96707.80;;;15.96;96.84
37904;BME280;23738;50.422;18.758;2023-08-06T08:33:29;96697.49;;;15.87;96.69
37904;BME280;23738;50.422;18.758;2023-08-06T08:35:58;96710.27;;;15.80;96.79
37904;BME280;23738;50.422;18.758;2023-08-06T08:38:27;96728.63;;;15.81;97.13
37904;BME280;23738;50.422;18.758;2023-08-06T08:40:57;96734.02;;;15.81;97.00
37904;BME280;23738;50.422;18.758;2023-08-06T08:43:28;96728.90;;;15.80;97.05
37904;BME280;23738;50.422;18.758;2023-08-06T08:46:00;96722.14;;;15.80;97.16
37904;BME280;23738;50.422;18.758;2023-08-06T08:48:31;96725.20;;;15.78;97.17
37904;BME280;23738;50.422;18.758;2023-08-06T08:51:01;96730.27;;;15.82;97.31
37904;BME280;23738;50.422;18.758;2023-08-06T08:53:31;96727.84;;;15.88;97.28
37904;BME280;23738;50.422;18.758;2023-08-06T08:56:03;96716.46;;;15.91;97.27
37904;BME280;23738;50.422;18.758;2023-08-06T08:58:33;96721.52;;;15.93;97.18
37904;BME280;23738;50.422;18.758;2023-08-06T09:01:03;96731.77;;;15.95;97.34
37904;BME280;23738;50.422;18.758;2023-08-06T09:03:33;96727.02;;;15.96;97.33
37904;BME280;23738;50.422;18.758;2023-08-06T09:06:04;96736.17;;;16.00;97.44
37904;BME280;23738;50.422;18.758;2023-08-06T09:08:37;96730.79;;;16.00;97.14
37904;BME280;23738;50.422;18.758;2023-08-06T09:11:10;96717.79;;;16.01;97.23
37904;BME280;23738;50.422;18.758;2023-08-06T09:13:40;96711.30;;;15.99;97.17
37904;BME280;23738;50.422;18.758;2023-08-06T09:16:10;96718.55;;;15.98;97.33
37904;BME280;23738;50.422;18.758;2023-08-06T09:18:40;96733.13;;;15.99;97.54
37904;BME280;23738;50.422;18.758;2023-08-06T09:21:14;96735.58;;;16.00;97.66
37904;BME280;23738;50.422;18.758;2023-08-06T09:23:45;96733.52;;;16.04;97.75
37904;BME280;23738;50.422;18.758;2023-08-06T09:26:14;96735.14;;;16.11;97.77
37904;BME280;23738;50.422;18.758;2023-08-06T09:28:43;96734.77;;;16.17;97.92
37904;BME280;23738;50.422;18.758;2023-08-06T09:31:13;96733.60;;;16.23;97.81
37904;BME280;23738;50.422;18.758;2023-08-06T09:33:42;96731.89;;;16.24;97.67
37904;BME280;23738;50.422;18.758;2023-08-06T09:36:13;96737.48;;;16.25;97.81
37904;BME280;23738;50.422;18.758;2023-08-06T09:38:43;96737.36;;;16.26;97.85
37904;BME280;23738;50.422;18.758;2023-08-06T09:41:27;96729.36;;;16.28;97.60
37904;BME280;23738;50.422;18.758;2023-08-06T09:43:57;96708.91;;;16.20;97.04
37904;BME280;23738;50.422;18.758;2023-08-06T09:46:29;96696.02;;;16.08;97.02
37904;BME280;23738;50.422;18.758;2023-08-06T09:49:01;96696.86;;;16.00;96.96
37904;BME280;23738;50.422;18.758;2023-08-06T09:51:31;96700.04;;;15.96;97.31
37904;BME280;23738;50.422;18.758;2023-08-06T09:54:02;96716.23;;;15.95;97.54
37904;BME280;23738;50.422;18.758;2023-08-06T09:56:32;96721.80;;;15.97;97.43
37904;BME280;23738;50.422;18.758;2023-08-06T09:59:05;96719.56;;;15.97;97.45
37904;BME280;23738;50.422;18.758;2023-08-06T10:01:36;96718.44;;;15.99;97.46
37904;BME280;23738;50.422;18.758;2023-08-06T10:04:06;96710.55;;;16.00;97.30
37904;BME280;23738;50.422;18.758;2023-08-06T10:06:36;96711.61;;;16.00;97.26
37904;BME280;23738;50.422;18.758;2023-08-06T10:09:06;96716.31;;;15.99;97.41
37904;BME280;23738;50.422;18.758;2023-08-06T10:11:38;96716.61;;;16.02;97.68
37904;BME280;23738;50.422;18.758;2023-08-06T10:14:11;96722.69;;;16.09;97.91
37904;BME280;23738;50.422;18.758;2023-08-06T10:16:43;96722.20;;;16.11;97.60
37904;BME280;23738;50.422;18.758;2023-08-06T10:19:13;96716.45;;;16.11;97.48
37904;BME280;23738;50.422;18.758;2023-08-06T10:22:10;96715.91;;;16.12;97.60
37904;BME280;23738;50.422;18.758;2023-08-06T10:24:50;96714.65;;;16.07;97.40
37904;BME280;23738;50.422;18.758;2023-08-06T10:27:28;96714.75;;;16.02;97.52
37904;BME280;23738;50.422;18.758;2023-08-06T10:29:57;96719.97;;;16.01;97.58
37904;BME280;23738;50.422;18.758;2023-08-06T10:32:51;96722.68;;;16.03;97.57
37904;BME280;23738;50.422;18.758;2023-08-06T10:35:34;96722.48;;;16.02;97.58
37904;BME280;23738;50.422;18.758;2023-08-06T10:38:09;96718.20;;;15.96;97.45
37904;BME280;23738;50.422;18.758;2023-08-06T10:40:40;96723.94;;;15.97;97.81
37904;BME280;23738;50.422;18.758;2023-08-06T10:43:26;96726.36;;;16.02;97.93
37904;BME280;23738;50.422;18.758;2023-08-06T10:45:57;96726.54;;;16.05;97.98
37904;BME280;23738;50.422;18.758;2023-08-06T10:48:33;96738.50;;;16.17;98.31
37904;BME280;23738;50.422;18.758;2023-08-06T10:51:06;96748.77;;;16.24;98.32
37904;BME280;23738;50.422;18.758;2023-08-06T10:53:36;96752.59;;;16.28;98.08
37904;BME280;23738;50.422;18.758;2023-08-06T10:56:14;96759.44;;;16.29;97.90
37904;BME280;23738;50.422;18.758;2023-08-06T10:58:46;96763.05;;;16.31;97.76
37904;BME280;23738;50.422;18.758;2023-08-06T11:01:16;96760.67;;;16.29;97.44
37904;BME280;23738;50.422;18.758;2023-08-06T11:03:46;96759.59;;;16.25;97.35
37904;BME280;23738;50.422;18.758;2023-08-06T11:06:20;96758.28;;;16.22;97.29
37904;BME280;23738;50.422;18.758;2023-08-06T11:08:51;96756.56;;;16.15;97.19
37904;BME280;23738;50.422;18.758;2023-08-06T11:11:22;96761.89;;;16.11;97.29
37904;BME280;23738;50.422;18.758;2023-08-06T11:13:52;96769.60;;;16.12;97.39
37904;BME280;23738;50.422;18.758;2023-08-06T11:16:23;96772.50;;;16.14;97.44
37904;BME280;23738;50.422;18.758;2023-08-06T11:18:53;96773.19;;;16.14;97.50
37904;BME280;23738;50.422;18.758;2023-08-06T11:21:24;96766.25;;;16.16;97.54
37904;BME280;23738;50.422;18.758;2023-08-06T11:23:55;96754.20;;;16.12;97.33
37904;BME280;23738;50.422;18.758;2023-08-06T11:26:24;96750.49;;;16.08;97.33
37904;BME280;23738;50.422;18.758;2023-08-06T11:28:55;96761.02;;;16.04;97.19
37904;BME280;23738;50.422;18.758;2023-08-06T11:31:25;96774.30;;;16.03;97.48
37904;BME280;23738;50.422;18.758;2023-08-06T11:33:55;96781.94;;;16.05;97.56
37904;BME280;23738;50.422;18.758;2023-08-06T11:36:36;96788.37;;;16.07;97.65
37904;BME280;23738;50.422;18.758;2023-08-06T11:39:08;96794.02;;;16.08;97.75
37904;BME280;23738;50.422;18.758;2023-08-06T11:41:38;96794.56;;;16.06;97.58
37904;BME280;23738;50.422;18.758;2023-08-06T11:44:11;96793.27;;;16.00;97.49
37904;BME280;23738;50.422;18.758;2023-08-06T11:46:55;96800.14;;;15.98;97.58
37904;BME280;23738;50.422;18.758;2023-08-06T11:49:38;96807.28;;;15.98;97.64
37904;BME280;23738;50.422;18.758;2023-08-06T11:52:15;96815.73;;;15.99;97.79
37904;BME280;23738;50.422;18.758;2023-08-06T11:54:59;96815.58;;;16.00;97.97
37904;BME280;23738;50.422;18.758;2023-08-06T11:57:30;96807.63;;;16.03;98.05
37904;BME280;23738;50.422;18.758;2023-08-06T12:00:04;96798.98;;;16.06;97.95
37904;BME280;23738;50.422;18.758;2023-08-06T12:02:35;96796.16;;;16.12;98.14
37904;BME280;23738;50.422;18.758;2023-08-06T12:05:10;96802.79;;;16.19;98.20
37904;BME280;23738;50.422;18.758;2023-08-06T12:07:40;96803.28;;;16.25;98.20
37904;BME280;23738;50.422;18.758;2023-08-06T12:10:11;96807.80;;;16.26;98.16
37904;BME280;23738;50.422;18.758;2023-08-06T12:12:41;96804.38;;;16.28;98.30
37904;BME280;23738;50.422;18.758;2023-08-06T12:15:11;96801.58;;;16.31;98.40
37904;BME280;23738;50.422;18.758;2023-08-06T12:17:40;96803.65;;;16.34;98.37
37904;BME280;23738;50.422;18.758;2023-08-06T12:20:11;96809.22;;;16.37;98.34
37904;BME280;23738;50.422;18.758;2023-08-06T12:22:41;96811.48;;;16.42;98.48
37904;BME280;23738;50.422;18.758;2023-08-06T12:25:11;96817.41;;;16.46;98.70
37904;BME280;23738;50.422;18.758;2023-08-06T12:27:42;96818.67;;;16.49;98.63
37904;BME280;23738;50.422;18.758;2023-08-06T12:30:12;96821.27;;;16.51;98.64
37904;BME280;23738;50.422;18.758;2023-08-06T12:32:42;96822.61;;;16.50;98.63
37904;BME280;23738;50.422;18.758;2023-08-06T12:35:11;96823.58;;;16.54;98.83
37904;BME280;23738;50.422;18.758;2023-08-06T12:37:42;96830.02;;;16.54;98.69
37904;BME280;23738;50.422;18.758;2023-08-06T12:40:12;96831.23;;;16.51;98.68
37904;BME280;23738;50.422;18.758;2023-08-06T12:42:42;96835.95;;;16.49;98.72
37904;BME280;23738;50.422;18.758;2023-08-06T12:45:11;96838.83;;;16.49;98.86
37904;BME280;23738;50.422;18.758;2023-08-06T12:47:42;96843.99;;;16.47;98.83
37904;BME280;23738;50.422;18.758;2023-08-06T12:50:12;96846.21;;;16.52;99.14
37904;BME280;23738;50.422;18.758;2023-08-06T12:52:41;96847.71;;;16.50;98.69
37904;BME280;23738;50.422;18.758;2023-08-06T12:55:10;96848.36;;;16.49;99.03
37904;BME280;23738;50.422;18.758;2023-08-06T12:57:40;96851.27;;;16.53;99.00
37904;BME280;23738;50.422;18.758;2023-08-06T13:00:11;96854.55;;;16.56;99.18
37904;BME280;23738;50.422;18.758;2023-08-06T13:02:40;96857.02;;;16.61;99.31
37904;BME280;23738;50.422;18.758;2023-08-06T13:05:09;96857.27;;;16.65;99.38
37904;BME280;23738;50.422;18.758;2023-08-06T13:07:38;96859.09;;;16.66;99.27